Time;durP1;ratioP1;P1;durP2;ratioP2;P2;SDS_P1;SDS_P2;PMS_P1;PMS_P2;Temp;Humidity;BMP_temperature;BMP_pressure;BME280_temperature;BME280_humidity;BME280_pressure;Samples;Min_cycle;Max_cycle;Signal;HPM_P1;HPM_P2
2022/03/19 00:01:05;;;;;;;3.92;2.75;;;10.60;41.10;;;;;;4982291;28;20035;-76
2022/03/19 00:03:31;;;;;;;4.38;2.75;;;10.50;41.10;;;;;;4975257;28;20019;-76
2022/03/19 00:05:57;;;;;;;4.70;2.58;;;10.50;40.90;;;;;;4975955;28;20034;-77
2022/03/19 00:08:23;;;;;;;7.20;2.60;;;10.40;40.50;;;;;;4976185;28;20034;-76
2022/03/19 00:10:50;;;;;;;7.20;3.08;;;10.40;40.10;;;;;;4978810;28;20018;-77
2022/03/19 00:13:17;;;;;;;5.43;2.92;;;10.50;39.80;;;;;;4979539;28;20030;-76
2022/03/19 00:15:43;;;;;;;4.10;2.33;;;10.40;40.50;;;;;;4976194;28;20031;-76
2022/03/19 00:18:09;;;;;;;3.58;2.47;;;10.50;39.90;;;;;;4976080;28;20025;-76
2022/03/19 00:20:37;;;;;;;3.08;2.33;;;10.40;39.80;;;;;;4976324;28;20473;-77
2022/03/19 00:23:05;;;;;;;4.03;2.58;;;10.40;39.30;;;;;;4976299;28;20078;-77
2022/03/19 00:25:30;;;;;;;5.20;3.05;;;10.50;40.40;;;;;;4975916;28;20070;-76
2022/03/19 00:27:56;;;;;;;2.60;1.40;;;10.50;39.60;;;;;;4975843;28;20047;-76
2022/03/19 00:30:22;;;;;;;3.35;2.35;;;10.50;38.50;;;;;;4975849;28;20066;-76
2022/03/19 00:32:48;;;;;;;3.60;2.25;;;10.40;39.60;;;;;;4993371;28;20096;-76
2022/03/19 00:35:13;;;;;;;4.00;2.42;;;10.50;38.80;;;;;;4995677;28;20031;-76
2022/03/19 00:37:47;;;;;;;4.65;2.40;;;10.50;39.40;;;;;;4990344;28;20045;-76
2022/03/19 00:40:15;;;;;;;8.40;2.78;;;10.50;39.70;;;;;;4976059;28;20838;-76
2022/03/19 00:42:42;;;;;;;2.90;2.50;;;10.50;39.60;;;;;;4975637;28;20026;-76
2022/03/19 00:45:09;;;;;;;3.05;2.22;;;10.50;39.50;;;;;;4989888;28;20043;-76
2022/03/19 00:47:35;;;;;;;2.42;2.13;;;10.50;38.90;;;;;;4982074;28;20038;-76
2022/03/19 00:50:02;;;;;;;3.63;2.50;;;10.40;38.90;;;;;;4994174;28;20394;-76
2022/03/19 00:52:28;;;;;;;3.50;2.33;;;10.40;39.20;;;;;;4993866;28;20094;-77
2022/03/19 00:54:53;;;;;;;4.28;2.20;;;10.40;39.40;;;;;;4980152;28;20039;-76
2022/03/19 00:57:19;;;;;;;4.47;2.63;;;10.40;39.10;;;;;;4975940;28;20459;-77
2022/03/19 00:59:45;;;;;;;3.58;2.50;;;10.40;39.50;;;;;;4990583;28;20031;-77
2022/03/19 01:02:10;;;;;;;9.77;2.70;;;10.40;39.60;;;;;;4987532;28;20026;-77
2022/03/19 01:04:36;;;;;;;3.47;2.63;;;10.30;39.00;;;;;;4982609;28;20039;-76
2022/03/19 01:07:02;;;;;;;3.63;2.55;;;10.30;39.20;;;;;;4975916;28;20063;-76
2022/03/19 01:09:27;;;;;;;4.53;2.22;;;10.30;39.40;;;;;;4975998;28;20060;-77
2022/03/19 01:11:54;;;;;;;4.85;2.63;;;10.30;39.50;;;;;;4987176;28;20057;-76
2022/03/19 01:14:19;;;;;;;4.53;2.50;;;10.30;39.10;;;;;;4990140;28;20049;-76
2022/03/19 01:16:45;;;;;;;6.63;3.03;;;10.30;39.70;;;;;;4978372;28;20031;-76
2022/03/19 01:19:11;;;;;;;3.60;2.40;;;10.30;39.50;;;;;;4979069;28;20031;-76
2022/03/19 01:21:36;;;;;;;4.30;2.75;;;10.30;39.90;;;;;;4979332;28;20374;-76
2022/03/19 01:24:03;;;;;;;5.47;2.40;;;10.20;39.70;;;;;;4979323;28;20036;-76
2022/03/19 01:26:29;;;;;;;5.65;2.47;;;10.30;39.80;;;;;;4978931;28;20537;-76
2022/03/19 01:28:55;;;;;;;2.80;2.47;;;10.30;39.70;;;;;;4979107;28;20400;-76
2022/03/19 01:31:25;;;;;;;4.85;3.05;;;10.30;39.60;;;;;;4979141;28;20038;-77
2022/03/19 01:33:54;;;;;;;6.35;2.88;;;10.30;39.90;;;;;;4978924;28;20026;-76
2022/03/19 01:36:20;;;;;;;5.68;2.53;;;10.20;40.40;;;;;;4978497;28;20031;-76
2022/03/19 01:38:46;;;;;;;4.57;2.42;;;10.20;39.80;;;;;;4978948;28;20453;-76
2022/03/19 01:41:11;;;;;;;4.40;3.40;;;10.20;40.10;;;;;;4993762;28;20019;-76
2022/03/19 01:43:38;;;;;;;3.75;1.80;;;10.10;40.50;;;;;;4979097;28;20434;-76
2022/03/19 01:46:04;;;;;;;6.40;2.85;;;10.10;39.90;;;;;;4978758;28;20041;-76
2022/03/19 01:48:30;;;;;;;3.67;2.42;;;10.20;40.60;;;;;;4993575;28;20058;-76
2022/03/19 01:50:56;;;;;;;4.57;2.80;;;10.10;40.80;;;;;;4998382;28;20085;-76
2022/03/19 01:53:21;;;;;;;4.13;2.70;;;10.10;40.40;;;;;;4994571;28;20038;-76
2022/03/19 01:55:47;;;;;;;4.95;2.38;;;10.10;40.30;;;;;;4978476;28;20089;-76
2022/03/19 01:58:13;;;;;;;4.35;2.45;;;10.00;40.30;;;;;;4978685;28;20932;-76
2022/03/19 02:00:39;;;;;;;3.90;2.78;;;10.10;40.90;;;;;;4993622;28;20077;-76
2022/03/19 02:03:06;;;;;;;5.05;2.90;;;10.00;41.10;;;;;;4985204;28;20509;-76
2022/03/19 02:05:32;;;;;;;5.13;3.20;;;10.00;40.80;;;;;;4978580;28;20061;-76
2022/03/19 02:07:57;;;;;;;4.53;2.33;;;10.00;41.50;;;;;;4978705;28;20421;-76
2022/03/19 02:10:23;;;;;;;4.70;2.20;;;10.00;41.40;;;;;;4978069;28;20034;-76
2022/03/19 02:12:50;;;;;;;3.45;2.63;;;10.00;41.10;;;;;;4997122;28;20113;-77
2022/03/19 02:15:16;;;;;;;5.65;2.55;;;10.00;41.20;;;;;;4982958;28;20023;-76
2022/03/19 02:17:42;;;;;;;3.15;2.55;;;9.80;41.20;;;;;;4978041;28;20050;-76
2022/03/19 02:20:09;;;;;;;8.15;2.90;;;9.90;41.80;;;;;;4978150;28;20015;-77
2022/03/19 02:22:35;;;;;;;3.78;2.05;;;9.90;41.70;;;;;;4978256;28;20018;-76
2022/03/19 02:27:45;;;;;;;3.38;2.08;;;9.80;42.10;;;;;;4978265;28;20062;-76
2022/03/19 02:30:14;;;;;;;6.55;3.42;;;9.90;42.10;;;;;;4977865;28;20367;-76
2022/03/19 02:32:45;;;;;;;6.70;2.95;;;9.80;42.40;;;;;;4977876;28;20442;-76
2022/03/19 02:35:11;;;;;;;6.05;2.90;;;9.80;42.00;;;;;;4977853;28;20504;-77
2022/03/19 02:37:43;;;;;;;3.45;2.53;;;9.80;42.50;;;;;;4977943;28;20034;-77
2022/03/19 02:40:10;;;;;;;4.15;2.65;;;9.70;42.50;;;;;;4977739;28;20102;-77
2022/03/19 02:42:36;;;;;;;3.70;2.80;;;9.70;42.70;;;;;;4977743;28;20027;-76
2022/03/19 02:45:05;;;;;;;6.43;3.92;;;9.80;42.80;;;;;;4977650;28;20027;-76
2022/03/19 02:47:32;;;;;;;7.15;3.08;;;9.80;43.20;;;;;;4984541;28;20029;-76
2022/03/19 02:49:58;;;;;;;4.55;2.40;;;9.70;43.20;;;;;;4992010;28;20407;-77
2022/03/19 02:52:24;;;;;;;4.70;2.72;;;9.70;43.20;;;;;;4977803;28;20019;-76
2022/03/19 02:54:50;;;;;;;4.93;3.05;;;9.70;43.80;;;;;;4977420;28;20062;-77
2022/03/19 02:57:15;;;;;;;5.25;2.78;;;9.70;43.40;;;;;;4977356;28;20027;-77
2022/03/19 02:59:41;;;;;;;6.95;3.47;;;9.70;43.70;;;;;;4984755;28;20034;-77
2022/03/19 03:02:10;;;;;;;5.07;2.90;;;9.60;43.60;;;;;;4995066;28;20865;-76
2022/03/19 03:04:35;;;;;;;5.28;3.25;;;9.70;44.00;;;;;;4996558;28;20030;-77
2022/03/19 03:07:04;;;;;;;4.72;3.22;;;9.60;44.10;;;;;;4996662;28;20034;-76
2022/03/19 03:09:32;;;;;;;7.95;3.47;;;9.50;44.60;;;;;;4996717;28;20041;-77
2022/03/19 03:12:01;;;;;;;4.50;3.17;;;9.50;44.30;;;;;;4988704;28;20081;-76
2022/03/19 03:14:27;;;;;;;4.18;2.63;;;9.60;45.20;;;;;;4977290;28;20070;-76
2022/03/19 03:16:54;;;;;;;5.80;3.15;;;9.50;44.80;;;;;;4976811;28;20023;-76
2022/03/19 03:19:20;;;;;;;5.53;3.08;;;9.50;45.00;;;;;;4976817;28;20094;-76
2022/03/19 03:21:46;;;;;;;6.25;3.85;;;9.50;45.20;;;;;;4994726;28;20022;-76
2022/03/19 03:24:13;;;;;;;6.07;3.20;;;9.50;45.50;;;;;;4996298;28;20392;-76
2022/03/19 03:26:40;;;;;;;3.97;2.33;;;9.50;45.60;;;;;;4980357;28;20046;-76
2022/03/19 03:29:06;;;;;;;4.95;3.10;;;9.50;45.20;;;;;;4976793;28;20023;-76
2022/03/19 03:31:33;;;;;;;7.47;4.28;;;9.40;45.70;;;;;;4977238;28;20046;-77
2022/03/19 03:34:00;;;;;;;5.65;3.40;;;9.40;45.70;;;;;;4977166;28;20065;-76
2022/03/19 03:36:25;;;;;;;6.75;3.63;;;9.40;46.20;;;;;;4976852;28;20058;-76
2022/03/19 03:38:51;;;;;;;6.38;3.33;;;9.30;45.80;;;;;;4975823;28;20023;-76
2022/03/19 03:41:17;;;;;;;5.18;2.83;;;9.40;46.10;;;;;;4976651;28;20046;-76
2022/03/19 03:43:43;;;;;;;6.82;3.40;;;9.30;46.20;;;;;;4976145;28;20023;-76
2022/03/19 03:46:09;;;;;;;9.73;3.67;;;9.30;46.50;;;;;;4976699;28;20031;-77
2022/03/19 03:48:36;;;;;;;6.60;3.63;;;9.40;46.30;;;;;;4982062;28;20105;-77
2022/03/19 03:51:03;;;;;;;7.82;3.45;;;9.40;46.30;;;;;;4976632;28;20078;-76
2022/03/19 03:53:29;;;;;;;6.85;3.40;;;9.20;46.20;;;;;;4976323;28;20038;-77
2022/03/19 03:55:57;;;;;;;7.30;3.55;;;9.30;46.70;;;;;;4976531;28;20038;-76
2022/03/19 03:58:24;;;;;;;6.35;3.65;;;9.20;46.80;;;;;;4994874;28;20565;-76
2022/03/19 04:00:55;;;;;;;5.43;3.30;;;9.20;47.00;;;;;;4995605;28;20027;-76
2022/03/19 04:03:20;;;;;;;6.28;3.42;;;9.20;47.10;;;;;;4977461;28;20062;-76
2022/03/19 04:05:46;;;;;;;6.85;3.47;;;9.10;47.20;;;;;;4990189;28;20520;-76
2022/03/19 04:08:12;;;;;;;10.88;3.92;;;9.10;47.60;;;;;;4991218;28;20037;-76
2022/03/19 04:10:37;;;;;;;5.13;3.22;;;9.10;48.00;;;;;;4976063;28;20042;-77
2022/03/19 04:13:04;;;;;;;7.38;3.85;;;9.20;47.90;;;;;;4976275;28;20065;-77
2022/03/19 04:15:29;;;;;;;7.13;3.28;;;9.20;48.00;;;;;;4976056;28;20620;-76
2022/03/19 04:17:55;;;;;;;8.23;4.30;;;9.10;47.70;;;;;;4976002;28;20090;-76
2022/03/19 04:20:22;;;;;;;7.15;3.83;;;9.10;48.00;;;;;;4976162;28;20031;-76
2022/03/19 04:22:48;;;;;;;10.70;4.43;;;9.00;48.10;;;;;;4976334;28;20129;-76
2022/03/19 04:25:16;;;;;;;6.82;3.95;;;9.00;48.30;;;;;;4990935;28;20027;-76
2022/03/19 04:27:43;;;;;;;7.03;4.03;;;9.00;48.30;;;;;;4975754;28;20035;-76
2022/03/19 04:30:12;;;;;;;8.65;3.47;;;8.90;48.90;;;;;;4976206;28;20049;-76
2022/03/19 04:32:53;;;;;;;8.23;3.78;;;8.90;48.80;;;;;;4976159;28;20111;-76
2022/03/19 04:38:07;;;;;;;7.68;3.55;;;8.90;49.10;;;;;;4976459;28;20499;-76
2022/03/19 04:40:34;;;;;;;7.43;3.85;;;8.90;49.20;;;;;;4975876;28;20107;-76
2022/03/19 04:43:00;;;;;;;6.22;3.95;;;8.80;49.40;;;;;;4976049;28;20023;-76
2022/03/19 04:45:25;;;;;;;8.07;4.40;;;8.80;49.50;;;;;;4975788;28;20042;-76
2022/03/19 04:47:52;;;;;;;8.00;4.32;;;8.80;49.20;;;;;;4986200;28;20542;-76
2022/03/19 04:50:18;;;;;;;7.72;4.15;;;8.80;49.70;;;;;;4995847;28;20469;-76
2022/03/19 04:52:44;;;;;;;8.77;4.40;;;8.80;50.00;;;;;;4992585;28;20109;-76
2022/03/19 04:55:11;;;;;;;9.40;4.40;;;8.80;49.80;;;;;;4979574;28;20506;-76
2022/03/19 04:57:38;;;;;;;9.95;4.72;;;8.70;49.80;;;;;;4984631;28;20031;-76
2022/03/19 05:00:06;;;;;;;8.05;4.15;;;8.70;50.20;;;;;;4990039;28;20499;-76
2022/03/19 05:02:32;;;;;;;7.07;4.07;;;8.70;50.30;;;;;;4999060;28;20098;-76
2022/03/19 05:04:58;;;;;;;8.95;4.18;;;8.70;50.40;;;;;;4983314;28;20519;-76
2022/03/19 05:07:24;;;;;;;8.82;4.60;;;8.70;50.60;;;;;;4979493;28;20106;-76
2022/03/19 05:12:39;;;;;;;9.05;4.40;;;8.70;50.90;;;;;;4979433;28;20046;-76
2022/03/19 05:15:06;;;;;;;8.68;4.82;;;8.60;50.70;;;;;;4979243;28;20631;-76
2022/03/19 05:17:32;;;;;;;9.05;5.18;;;8.60;51.10;;;;;;4979428;28;20037;-76
2022/03/19 05:19:58;;;;;;;10.50;4.32;;;8.60;51.30;;;;;;4979069;28;20397;-76
2022/03/19 05:22:24;;;;;;;9.93;4.95;;;8.70;51.30;;;;;;4979371;28;20029;-76
2022/03/19 05:24:50;;;;;;;10.68;5.25;;;8.60;51.50;;;;;;4978988;28;20034;-76
2022/03/19 05:27:17;;;;;;;9.23;5.22;;;8.60;51.50;;;;;;4994026;28;20051;-76
2022/03/19 05:29:43;;;;;;;10.98;5.32;;;8.50;52.00;;;;;;4979233;28;20031;-76
2022/03/19 05:32:09;;;;;;;12.20;4.50;;;8.50;52.00;;;;;;4978850;28;20551;-76
2022/03/19 05:34:35;;;;;;;7.75;4.32;;;8.50;52.20;;;;;;4979183;28;20037;-76
2022/03/19 05:37:03;;;;;;;9.55;5.20;;;8.50;52.00;;;;;;4979020;28;20023;-76
2022/03/19 05:39:29;;;;;;;11.07;5.40;;;8.40;52.80;;;;;;4979157;28;20121;-76
2022/03/19 05:41:55;;;;;;;12.73;5.18;;;8.40;52.50;;;;;;4979236;28;20114;-76
2022/03/19 05:44:21;;;;;;;11.85;5.68;;;8.30;52.70;;;;;;4978821;28;20050;-76
2022/03/19 05:46:47;;;;;;;10.27;5.72;;;8.30;53.00;;;;;;4979613;28;20031;-76
2022/03/19 05:49:13;;;;;;;11.55;5.18;;;8.40;53.10;;;;;;4998011;28;20030;-76
2022/03/19 05:51:38;;;;;;;15.45;6.05;;;8.40;52.90;;;;;;4998233;28;20022;-76
2022/03/19 05:54:04;;;;;;;15.45;7.15;;;8.40;53.10;;;;;;4998008;28;20037;-76
2022/03/19 05:56:30;;;;;;;8.80;5.18;;;8.30;53.30;;;;;;4980531;28;20026;-76
2022/03/19 05:58:56;;;;;;;11.73;6.43;;;8.30;53.60;;;;;;4997970;28;20057;-77
2022/03/19 06:01:26;;;;;;;11.30;5.57;;;8.20;53.70;;;;;;4992450;28;20035;-76
2022/03/19 06:03:53;;;;;;;12.52;5.78;;;8.20;53.80;;;;;;4987025;28;20054;-77
2022/03/19 06:06:18;;;;;;;11.40;6.00;;;8.30;54.00;;;;;;4995095;28;20079;-76
2022/03/19 06:08:44;;;;;;;11.63;5.80;;;8.30;54.50;;;;;;4987697;28;20880;-76
2022/03/19 06:11:10;;;;;;;12.77;6.03;;;8.20;54.10;;;;;;4982447;28;20061;-76
2022/03/19 06:13:35;;;;;;;11.32;5.60;;;8.30;54.10;;;;;;4996665;28;20030;-76
2022/03/19 06:16:01;;;;;;;12.38;6.80;;;8.20;54.60;;;;;;4978256;28;20031;-76
2022/03/19 06:18:27;;;;;;;14.32;6.82;;;8.30;54.30;;;;;;4977746;28;20061;-76
2022/03/19 06:20:52;;;;;;;11.05;5.13;;;8.30;54.60;;;;;;4991868;28;20046;-76
2022/03/19 06:23:18;;;;;;;13.90;6.55;;;8.20;54.70;;;;;;4996193;28;20448;-76
2022/03/19 06:25:43;;;;;;;13.95;7.18;;;8.20;55.50;;;;;;4996099;28;20496;-76
2022/03/19 06:28:09;;;;;;;13.63;7.03;;;8.20;55.10;;;;;;4977428;28;20161;-76
2022/03/19 06:30:37;;;;;;;16.13;6.78;;;8.30;55.20;;;;;;4978088;28;20022;-76
2022/03/19 06:33:04;;;;;;;13.50;6.25;;;8.30;55.20;;;;;;4989357;28;20022;-76
2022/03/19 06:38:16;;;;;;;15.02;6.65;;;8.40;55.30;;;;;;5003292;28;20244;-82
2022/03/19 06:40:42;;;;;;;13.63;6.10;;;8.50;55.20;;;;;;4997027;28;20042;-82
2022/03/19 06:43:07;;;;;;;12.88;7.28;;;8.30;55.40;;;;;;4980644;28;20087;-82
2022/03/19 06:45:33;;;;;;;16.25;7.25;;;8.40;55.40;;;;;;5003550;28;20524;-83
2022/03/19 06:47:59;;;;;;;17.65;8.25;;;8.60;55.50;;;;;;5002182;28;20385;-82
2022/03/19 06:50:24;;;;;;;17.88;9.02;;;8.60;55.00;;;;;;5003987;28;20057;-84
2022/03/19 06:52:50;;;;;;;16.13;8.75;;;8.60;55.40;;;;;;5006250;28;20076;-81
2022/03/19 06:55:16;;;;;;;14.27;7.22;;;8.60;55.80;;;;;;5003815;28;20053;-86
2022/03/19 06:57:41;;;;;;;15.00;8.75;;;8.60;55.70;;;;;;5005502;28;20109;-81
2022/03/19 07:00:07;;;;;;;18.88;8.27;;;8.70;55.60;;;;;;5004485;28;20838;-80
2022/03/19 07:02:44;;;;;;;16.55;8.27;;;8.80;55.30;;;;;;5005207;28;20030;-85
2022/03/19 07:05:10;;;;;;;14.50;7.93;;;8.90;55.10;;;;;;5004662;28;20036;-79
2022/03/19 07:07:35;;;;;;;17.73;8.77;;;9.00;55.00;;;;;;5003055;28;20157;-81
2022/03/19 07:10:01;;;;;;;18.85;7.90;;;9.00;55.20;;;;;;5003404;28;20027;-80
2022/03/19 07:12:27;;;;;;;14.20;7.47;;;9.20;54.80;;;;;;5004833;28;20030;-77
2022/03/19 07:14:52;;;;;;;17.98;8.70;;;9.20;54.50;;;;;;5003979;28;20054;-76
2022/03/19 07:17:18;;;;;;;15.30;8.52;;;9.40;54.40;;;;;;5004547;28;20065;-77
2022/03/19 07:19:44;;;;;;;19.27;10.07;;;9.60;54.50;;;;;;5006433;28;20034;-76
2022/03/19 07:22:09;;;;;;;15.50;7.95;;;9.80;53.80;;;;;;5005546;28;20019;-76
2022/03/19 07:24:36;;;;;;;16.90;8.13;;;10.00;52.60;;;;;;5003779;28;20030;-77
2022/03/19 07:27:02;;;;;;;16.80;9.02;;;10.00;52.30;;;;;;5000614;28;20052;-77
2022/03/19 07:29:28;;;;;;;16.55;9.02;;;10.00;52.20;;;;;;5002761;28;20536;-77
2022/03/19 07:31:54;;;;;;;15.80;8.75;;;10.30;52.40;;;;;;5006097;28;20033;-77
2022/03/19 07:34:19;;;;;;;23.63;9.48;;;10.20;52.10;;;;;;5003127;28;20031;-76
2022/03/19 07:36:45;;;;;;;16.90;8.95;;;10.70;51.80;;;;;;5005977;28;20025;-76
2022/03/19 07:39:11;;;;;;;19.33;10.05;;;10.40;51.60;;;;;;5002369;28;20076;-76
2022/03/19 07:41:45;;;;;;;18.85;9.50;;;10.80;51.00;;;;;;5003346;28;20081;-76
2022/03/19 07:44:11;;;;;;;20.85;10.82;;;10.90;51.00;;;;;;5011118;28;20113;-76
2022/03/19 07:46:37;;;;;;;16.98;9.90;;;11.00;50.20;;;;;;5001095;28;20098;-76
2022/03/19 07:49:03;;;;;;;22.98;11.82;;;11.10;50.30;;;;;;4991361;28;20386;-78
2022/03/19 07:51:30;;;;;;;23.95;11.07;;;11.20;49.80;;;;;;4989522;28;20109;-77
2022/03/19 07:53:56;;;;;;;18.80;10.43;;;11.00;50.30;;;;;;4994145;28;20027;-77
2022/03/19 07:56:22;;;;;;;21.90;9.93;;;11.30;49.80;;;;;;4988787;28;20044;-77
2022/03/19 07:58:50;;;;;;;24.55;12.00;;;11.20;50.10;;;;;;4987908;28;20023;-77
2022/03/19 08:01:19;;;;;;;22.48;11.85;;;11.40;50.00;;;;;;4995625;28;20440;-78
2022/03/19 08:03:45;;;;;;;21.35;10.63;;;11.40;49.80;;;;;;4995601;28;20041;-78
2022/03/19 08:06:11;;;;;;;20.33;11.75;;;11.40;49.80;;;;;;4999100;28;20053;-78
2022/03/19 08:08:37;;;;;;;21.75;11.75;;;11.40;50.00;;;;;;4989567;28;20031;-81
2022/03/19 08:14:44;;;;;;;26.05;12.85;;;11.70;49.40;;;;;;5069962;28;20409;-84
2022/03/19 08:17:11;;;;;;;24.55;11.98;;;11.70;49.70;;;;;;5057713;28;20029;-82
2022/03/19 08:19:37;;;;;;;25.02;12.02;;;11.40;50.40;;;;;;5061184;28;20033;-81
2022/03/19 08:22:03;;;;;;;19.55;11.38;;;11.60;51.00;;;;;;5057563;28;20021;-81
2022/03/19 08:24:28;;;;;;;24.48;12.90;;;11.50;50.30;;;;;;5061801;28;20025;-81
2022/03/19 08:26:54;;;;;;;25.30;12.38;;;11.60;50.60;;;;;;5061222;28;20436;-79
2022/03/19 08:29:23;;;;;;;26.13;14.73;;;11.70;50.10;;;;;;5060122;28;20050;-83
2022/03/19 08:31:50;;;;;;;22.17;11.00;;;11.50;50.80;;;;;;5056385;28;20035;-79
2022/03/19 08:34:16;;;;;;;23.13;11.80;;;11.20;51.00;;;;;;5059719;28;20087;-80
2022/03/19 08:36:42;;;;;;;27.55;13.40;;;11.40;51.10;;;;;;5056664;28;20026;-79
2022/03/19 08:41:52;;;;;;;23.50;12.80;;;11.40;51.30;;;;;;5058534;28;20060;-80
2022/03/19 08:44:17;;;;;;;26.45;13.23;;;11.60;51.40;;;;;;5060130;28;20029;-80
2022/03/19 08:46:43;;;;;;;24.00;14.05;;;11.50;51.50;;;;;;5057331;28;20031;-79
2022/03/19 08:49:09;;;;;;;20.25;11.43;;;11.60;51.20;;;;;;5057548;28;20051;-80
2022/03/19 08:51:40;;;;;;;25.13;13.32;;;11.90;50.60;;;;;;5093179;28;20399;-79
2022/03/19 08:54:16;;;;;;;18.27;10.98;;;12.10;50.10;;;;;;5059440;28;20056;-80
2022/03/19 08:56:44;;;;;;;21.83;12.90;;;12.00;50.30;;;;;;5059974;28;20043;-80
2022/03/19 08:59:10;;;;;;;25.00;13.85;;;12.20;50.80;;;;;;5053487;28;20029;-80
2022/03/19 09:01:38;;;;;;;27.95;15.68;;;12.40;50.20;;;;;;5048294;28;20025;-80
2022/03/19 09:04:05;;;;;;;27.92;15.50;;;12.20;49.90;;;;;;5051133;28;20018;-80
2022/03/19 09:06:31;;;;;;;26.20;14.20;;;12.50;50.10;;;;;;5046595;28;20396;-80
2022/03/19 09:08:56;;;;;;;26.90;14.93;;;13.00;48.90;;;;;;5050891;28;20071;-80
2022/03/19 09:11:23;;;;;;;22.25;13.95;;;13.30;48.60;;;;;;5049294;28;20055;-80
2022/03/19 09:13:51;;;;;;;25.60;13.82;;;13.40;48.00;;;;;;5048553;28;20415;-80
2022/03/19 09:16:18;;;;;;;27.90;15.20;;;13.90;47.40;;;;;;5050312;28;20030;-81
2022/03/19 09:18:43;;;;;;;24.00;14.40;;;13.50;47.00;;;;;;5051155;28;20099;-81
2022/03/19 09:21:09;;;;;;;24.42;14.60;;;13.50;48.00;;;;;;5047565;28;20071;-81
2022/03/19 09:23:35;;;;;;;25.58;16.05;;;13.90;47.20;;;;;;5082555;28;20029;-80
2022/03/19 09:26:01;;;;;;;30.33;16.75;;;13.80;46.40;;;;;;5034960;28;20021;-81
2022/03/19 09:28:27;;;;;;;22.30;12.38;;;14.30;45.80;;;;;;5036026;28;20033;-80
2022/03/19 09:30:52;;;;;;;22.58;13.05;;;14.00;45.90;;;;;;5037288;28;20089;-80
2022/03/19 09:33:19;;;;;;;28.27;17.25;;;13.90;46.40;;;;;;5036151;28;20032;-81
2022/03/19 09:35:46;;;;;;;28.60;15.57;;;14.00;46.70;;;;;;5034014;28;20064;-81
2022/03/19 09:38:13;;;;;;;27.73;16.25;;;14.30;45.90;;;;;;5034779;28;20059;-80
2022/03/19 09:40:40;;;;;;;28.60;16.90;;;14.20;45.20;;;;;;5035931;28;20073;-80
2022/03/19 09:43:06;;;;;;;28.65;17.95;;;14.20;46.00;;;;;;5036616;28;20029;-82
2022/03/19 09:45:33;;;;;;;29.33;15.65;;;14.20;46.10;;;;;;5034797;28;20033;-84
2022/03/19 09:48:00;;;;;;;26.13;15.88;;;14.10;46.20;;;;;;5034825;28;20037;-84
2022/03/19 09:50:26;;;;;;;24.63;14.45;;;14.40;45.60;;;;;;5034032;28;20392;-80
2022/03/19 09:52:54;;;;;;;31.20;17.38;;;14.50;45.20;;;;;;5025211;28;20104;-79
2022/03/19 09:55:21;;;;;;;25.10;15.63;;;14.70;44.80;;;;;;5023381;28;20033;-83
2022/03/19 09:57:47;;;;;;;26.33;17.00;;;14.80;45.10;;;;;;5015733;28;20037;-82
2022/03/19 10:00:13;;;;;;;27.65;15.82;;;14.80;45.70;;;;;;5036270;28;20037;-82
2022/03/19 10:02:55;;;;;;;27.55;15.52;;;14.50;45.90;;;;;;5016991;28;20034;-79
2022/03/19 10:10:56;;;;;;;28.67;16.88;;;14.80;46.10;;;;;;5021211;28;20041;-78
2022/03/19 10:13:23;;;;;;;26.70;17.20;;;15.20;45.90;;;;;;5032511;28;20717;-76
2022/03/19 10:15:49;;;;;;;26.33;16.63;;;15.50;44.20;;;;;;5035893;28;20108;-77
2022/03/19 10:18:14;;;;;;;28.98;18.38;;;15.30;44.00;;;;;;5015568;28;20068;-76
2022/03/19 10:20:42;;;;;;;29.05;16.80;;;15.30;44.90;;;;;;5030386;28;20029;-76
2022/03/19 10:23:08;;;;;;;29.23;15.88;;;15.30;44.90;;;;;;5032629;28;20061;-76
2022/03/19 10:25:33;;;;;;;29.23;16.70;;;15.30;44.70;;;;;;5035680;28;20025;-75
2022/03/19 10:28:08;;;;;;;27.98;17.45;;;14.70;45.90;;;;;;5024103;28;20037;-77
2022/03/19 10:30:41;;;;;;;39.67;17.73;;;14.60;46.70;;;;;;5033748;28;20596;-77
2022/03/19 10:33:08;;;;;;;28.63;16.50;;;14.70;46.70;;;;;;5031697;28;20504;-75
2022/03/19 10:35:38;;;;;;;31.73;17.23;;;14.70;46.80;;;;;;5034020;28;20026;-81
2022/03/19 10:38:19;;;;;;;29.95;18.70;;;14.80;46.90;;;;;;5026945;28;20050;-75
2022/03/19 10:40:47;;;;;;;31.52;18.48;;;14.80;46.70;;;;;;5023943;28;20032;-75
2022/03/19 10:43:16;;;;;;;31.73;17.80;;;14.90;46.50;;;;;;5035487;28;20033;-83
2022/03/19 10:45:50;;;;;;;31.25;17.05;;;14.80;46.70;;;;;;5030725;28;20128;-80
2022/03/19 10:48:23;;;;;;;29.02;15.80;;;15.20;47.20;;;;;;5035165;28;20029;-78
2022/03/19 10:50:50;;;;;;;31.70;17.48;;;14.80;46.30;;;;;;5037716;28;20598;-76
2022/03/19 10:53:18;;;;;;;36.60;18.85;;;14.90;47.40;;;;;;5044004;28;20025;-74
2022/03/19 10:55:44;;;;;;;41.78;23.15;;;14.80;47.50;;;;;;5034415;28;20025;-75
2022/03/19 10:58:11;;;;;;;40.15;22.33;;;14.90;47.00;;;;;;5046229;28;20040;-75
2022/03/19 11:00:36;;;;;;;34.13;18.40;;;14.70;47.40;;;;;;5042113;28;20088;-83
2022/03/19 11:03:37;;;;;;;45.35;24.40;;;14.70;49.20;;;;;;5043203;28;20499;-75
2022/03/19 11:06:07;;;;;;;33.03;17.88;;;14.60;48.30;;;;;;5007764;28;20034;-76
2022/03/19 11:08:43;;;;;;;33.70;18.13;;;14.70;48.20;;;;;;5031061;28;20038;-77
2022/03/19 11:11:18;;;;;;;33.90;18.65;;;14.90;49.80;;;;;;5024847;28;20036;-77
2022/03/19 11:13:51;;;;;;;32.80;18.08;;;15.00;48.30;;;;;;5055347;28;20056;-77
2022/03/19 11:16:20;;;;;;;37.95;18.42;;;14.80;48.00;;;;;;5034299;28;20547;-78
2022/03/19 11:18:47;;;;;;;37.05;20.55;;;14.40;49.30;;;;;;5015596;28;20026;-77
2022/03/19 11:21:14;;;;;;;32.38;18.20;;;14.60;49.00;;;;;;5018443;28;20021;-77
2022/03/19 11:23:50;;;;;;;28.33;16.42;;;14.60;49.10;;;;;;5048933;28;20483;-76
2022/03/19 11:26:22;;;;;;;32.67;18.02;;;14.80;49.20;;;;;;5054577;28;20056;-76
2022/03/19 11:28:48;;;;;;;32.55;18.55;;;14.80;49.90;;;;;;5041239;28;20124;-74
2022/03/19 11:31:16;;;;;;;37.85;21.40;;;14.60;49.50;;;;;;5045740;28;20028;-74
2022/03/19 11:33:42;;;;;;;34.80;20.83;;;14.90;49.20;;;;;;5038660;28;20427;-76
2022/03/19 11:36:10;;;;;;;30.42;18.23;;;15.10;48.90;;;;;;5024229;28;20026;-76
2022/03/19 11:38:52;;;;;;;35.22;19.05;;;15.20;48.40;;;;;;5035465;28;20030;-74
2022/03/19 11:41:22;;;;;;;31.63;17.70;;;14.80;50.00;;;;;;5067302;28;20029;-76
2022/03/19 11:43:49;;;;;;;34.58;18.67;;;14.70;49.40;;;;;;5034154;28;20034;-74
2022/03/19 11:46:16;;;;;;;42.03;21.23;;;14.50;50.10;;;;;;5029519;28;20034;-74
2022/03/19 11:48:48;;;;;;;34.25;19.10;;;14.60;50.20;;;;;;5031894;28;20022;-75
2022/03/19 11:51:33;;;;;;;37.22;19.20;;;14.80;50.30;;;;;;5032081;28;20104;-79
2022/03/19 11:54:15;;;;;;;32.40;19.15;;;14.70;50.00;;;;;;5039274;28;20035;-76
2022/03/19 11:56:49;;;;;;;36.35;20.42;;;14.70;50.20;;;;;;5035373;28;20021;-77
2022/03/19 11:59:21;;;;;;;31.67;18.83;;;14.80;49.60;;;;;;5023193;28;20025;-76
2022/03/19 12:02:02;;;;;;;34.70;19.83;;;14.80;50.20;;;;;;5035363;28;20029;-77
2022/03/19 12:04:47;;;;;;;34.65;19.38;;;14.90;50.60;;;;;;5038285;28;20033;-77
2022/03/19 12:07:39;;;;;;;38.13;20.60;;;15.10;50.10;;;;;;5040177;28;20466;-84
2022/03/19 12:10:17;;;;;;;34.20;19.48;;;14.90;49.90;;;;;;5015794;28;20040;-81
2022/03/19 12:12:44;;;;;;;33.80;18.33;;;14.90;50.70;;;;;;5030295;28;20069;-81
2022/03/19 12:15:32;;;;;;;35.92;20.25;;;14.90;51.10;;;;;;5014348;28;20104;-82
2022/03/19 12:18:23;;;;;;;34.97;22.38;;;15.00;50.30;;;;;;5015543;28;20092;-82
2022/03/19 12:20:50;;;;;;;37.90;20.00;;;14.80;50.30;;;;;;5018187;28;20033;-82
2022/03/19 12:23:17;;;;;;;36.60;19.95;;;14.70;51.30;;;;;;5028920;28;20025;-81
2022/03/19 12:25:49;;;;;;;35.28;18.83;;;14.70;51.30;;;;;;5015413;28;20030;-80
2022/03/19 12:28:16;;;;;;;35.65;19.52;;;14.70;51.50;;;;;;5046724;28;20105;-82
2022/03/19 12:30:43;;;;;;;37.53;20.67;;;14.70;51.10;;;;;;5015302;28;20030;-78
2022/03/19 12:33:09;;;;;;;38.88;20.05;;;14.80;51.70;;;;;;5029627;28;20045;-83
2022/03/19 12:35:34;;;;;;;43.05;22.42;;;14.90;51.20;;;;;;5063796;28;20049;-80
2022/03/19 12:38:00;;;;;;;42.05;23.75;;;15.00;50.80;;;;;;5034129;28;20071;-78
2022/03/19 12:40:28;;;;;;;32.55;19.83;;;15.10;50.50;;;;;;5034302;28;20026;-85
2022/03/19 12:42:57;;;;;;;40.58;21.23;;;15.30;50.20;;;;;;5031791;28;20100;-76
2022/03/19 12:45:40;;;;;;;40.30;21.88;;;15.30;50.50;;;;;;5034390;28;20025;-77
2022/03/19 12:48:15;;;;;;;38.65;23.55;;;15.50;50.20;;;;;;5032219;28;20024;-78
2022/03/19 12:50:56;;;;;;;35.95;21.27;;;15.50;49.70;;;;;;5033161;28;20033;-79
2022/03/19 12:53:31;;;;;;;38.00;23.13;;;15.40;50.40;;;;;;5029698;28;20425;-76
2022/03/19 12:56:13;;;;;;;37.58;21.27;;;15.20;50.00;;;;;;5031437;28;20021;-79
2022/03/19 12:58:41;;;;;;;39.03;21.10;;;15.30;50.60;;;;;;5061460;28;20029;-79
2022/03/19 13:01:13;;;;;;;39.55;21.27;;;15.60;50.60;;;;;;5041985;28;20036;-79
2022/03/19 13:03:41;;;;;;;40.35;22.30;;;15.50;50.20;;;;;;5048920;28;20084;-79
2022/03/19 13:06:08;;;;;;;36.95;21.45;;;15.70;49.70;;;;;;5028670;28;20026;-76